sensor_id;sensor_type;location;lat;lon;timestamp;temperature;humidity
66568;DHT22;53422;49.296;6.900;2022-07-03T00:01:27;21.00;52.90
66568;DHT22;53422;49.296;6.900;2022-07-03T00:03:53;21.00;53.10
66568;DHT22;53422;49.296;6.900;2022-07-03T00:06:19;21.00;53.10
66568;DHT22;53422;49.296;6.900;2022-07-03T00:08:45;21.00;53.00
66568;DHT22;53422;49.296;6.900;2022-07-03T00:11:11;21.00;53.00
66568;DHT22;53422;49.296;6.900;2022-07-03T00:13:37;21.00;53.00
66568;DHT22;53422;49.296;6.900;2022-07-03T00:16:03;20.90;53.20
66568;DHT22;53422;49.296;6.900;2022-07-03T00:18:29;20.90;53.70
66568;DHT22;53422;49.296;6.900;2022-07-03T00:21:02;20.90;53.40
66568;DHT22;53422;49.296;6.900;2022-07-03T00:24:02;20.90;53.30
66568;DHT22;53422;49.296;6.900;2022-07-03T00:26:30;20.80;53.30
66568;DHT22;53422;49.296;6.900;2022-07-03T00:29:00;20.80;53.80
66568;DHT22;53422;49.296;6.900;2022-07-03T00:31:29;20.80;53.60
66568;DHT22;53422;49.296;6.900;2022-07-03T00:33:58;20.80;53.60
66568;DHT22;53422;49.296;6.900;2022-07-03T00:36:39;20.80;53.60
66568;DHT22;53422;49.296;6.900;2022-07-03T00:39:05;20.70;53.60
66568;DHT22;53422;49.296;6.900;2022-07-03T00:41:33;20.70;53.60
66568;DHT22;53422;49.296;6.900;2022-07-03T00:44:00;20.70;53.60
66568;DHT22;53422;49.296;6.900;2022-07-03T00:46:27;20.70;53.70
66568;DHT22;53422;49.296;6.900;2022-07-03T00:48:54;20.60;54.10
66568;DHT22;53422;49.296;6.900;2022-07-03T00:51:21;20.60;53.90
66568;DHT22;53422;49.296;6.900;2022-07-03T00:53:49;20.60;53.90
66568;DHT22;53422;49.296;6.900;2022-07-03T00:56:16;20.60;54.10
66568;DHT22;53422;49.296;6.900;2022-07-03T00:58:45;20.60;53.80
66568;DHT22;53422;49.296;6.900;2022-07-03T01:01:12;20.50;54.00
66568;DHT22;53422;49.296;6.900;2022-07-03T01:03:43;20.50;54.10
66568;DHT22;53422;49.296;6.900;2022-07-03T01:06:14;20.50;54.10
66568;DHT22;53422;49.296;6.900;2022-07-03T01:11:23;20.50;54.10
66568;DHT22;53422;49.296;6.900;2022-07-03T01:19:18;20.40;54.30
66568;DHT22;53422;49.296;6.900;2022-07-03T01:26:55;20.40;54.70
66568;DHT22;53422;49.296;6.900;2022-07-03T01:29:35;20.30;54.60
66568;DHT22;53422;49.296;6.900;2022-07-03T01:32:03;20.30;54.60
66568;DHT22;53422;49.296;6.900;2022-07-03T01:34:34;20.30;54.80
66568;DHT22;53422;49.296;6.900;2022-07-03T01:37:02;20.30;54.60
66568;DHT22;53422;49.296;6.900;2022-07-03T01:39:30;20.30;54.80
66568;DHT22;53422;49.296;6.900;2022-07-03T01:41:59;20.20;55.00
66568;DHT22;53422;49.296;6.900;2022-07-03T01:44:27;20.20;55.20
66568;DHT22;53422;49.296;6.900;2022-07-03T01:46:57;20.20;55.50
66568;DHT22;53422;49.296;6.900;2022-07-03T01:49:26;20.20;55.50
66568;DHT22;53422;49.296;6.900;2022-07-03T01:51:56;20.10;55.60
66568;DHT22;53422;49.296;6.900;2022-07-03T01:54:25;20.10;55.30
66568;DHT22;53422;49.296;6.900;2022-07-03T01:56:52;20.10;55.20
66568;DHT22;53422;49.296;6.900;2022-07-03T01:59:18;20.10;55.40
66568;DHT22;53422;49.296;6.900;2022-07-03T02:10:06;20.00;55.40
66568;DHT22;53422;49.296;6.900;2022-07-03T02:12:38;20.00;55.50
66568;DHT22;53422;49.296;6.900;2022-07-03T02:15:09;20.00;55.50
66568;DHT22;53422;49.296;6.900;2022-07-03T02:17:47;20.00;55.60
66568;DHT22;53422;49.296;6.900;2022-07-03T02:20:15;20.00;55.70
66568;DHT22;53422;49.296;6.900;2022-07-03T02:22:44;19.90;55.60
66568;DHT22;53422;49.296;6.900;2022-07-03T02:25:30;19.90;55.90
66568;DHT22;53422;49.296;6.900;2022-07-03T02:30:29;19.90;55.80
66568;DHT22;53422;49.296;6.900;2022-07-03T02:32:59;19.90;56.00
66568;DHT22;53422;49.296;6.900;2022-07-03T02:38:11;19.90;56.00
66568;DHT22;53422;49.296;6.900;2022-07-03T02:44:25;19.80;56.10
66568;DHT22;53422;49.296;6.900;2022-07-03T02:52:35;19.80;56.40
66568;DHT22;53422;49.296;6.900;2022-07-03T02:57:43;19.70;56.30
66568;DHT22;53422;49.296;6.900;2022-07-03T03:00:10;19.70;56.60
66568;DHT22;53422;49.296;6.900;2022-07-03T03:02:57;19.70;56.50
66568;DHT22;53422;49.296;6.900;2022-07-03T03:11:09;19.60;56.50
66568;DHT22;53422;49.296;6.900;2022-07-03T03:13:40;19.60;56.50
66568;DHT22;53422;49.296;6.900;2022-07-03T03:16:10;19.60;56.60
66568;DHT22;53422;49.296;6.900;2022-07-03T03:18:40;19.60;56.60
66568;DHT22;53422;49.296;6.900;2022-07-03T03:21:09;19.60;57.00
66568;DHT22;53422;49.296;6.900;2022-07-03T03:23:51;19.60;57.00
66568;DHT22;53422;49.296;6.900;2022-07-03T03:26:24;19.50;57.20
66568;DHT22;53422;49.296;6.900;2022-07-03T03:28:51;19.50;57.10
66568;DHT22;53422;49.296;6.900;2022-07-03T03:31:18;19.50;58.00
66568;DHT22;53422;49.296;6.900;2022-07-03T03:33:48;19.50;57.00
66568;DHT22;53422;49.296;6.900;2022-07-03T03:36:18;19.50;57.10
66568;DHT22;53422;49.296;6.900;2022-07-03T03:38:45;19.50;57.20
66568;DHT22;53422;49.296;6.900;2022-07-03T03:41:11;19.50;57.30
66568;DHT22;53422;49.296;6.900;2022-07-03T03:43:37;19.50;57.30
66568;DHT22;53422;49.296;6.900;2022-07-03T03:46:04;19.40;57.30
66568;DHT22;53422;49.296;6.900;2022-07-03T03:48:31;19.40;57.40
66568;DHT22;53422;49.296;6.900;2022-07-03T03:50:58;19.40;57.30
66568;DHT22;53422;49.296;6.900;2022-07-03T03:53:25;19.40;57.60
66568;DHT22;53422;49.296;6.900;2022-07-03T03:56:03;19.40;57.40
66568;DHT22;53422;49.296;6.900;2022-07-03T03:58:31;19.40;57.50
66568;DHT22;53422;49.296;6.900;2022-07-03T04:00:57;19.40;57.60
66568;DHT22;53422;49.296;6.900;2022-07-03T04:03:24;19.30;57.70
66568;DHT22;53422;49.296;6.900;2022-07-03T04:05:49;19.30;58.10
66568;DHT22;53422;49.296;6.900;2022-07-03T04:08:15;19.30;58.00
66568;DHT22;53422;49.296;6.900;2022-07-03T04:10:41;19.30;58.40
66568;DHT22;53422;49.296;6.900;2022-07-03T04:13:07;19.30;58.50
66568;DHT22;53422;49.296;6.900;2022-07-03T04:15:32;19.30;58.40
66568;DHT22;53422;49.296;6.900;2022-07-03T04:17:58;19.30;58.60
66568;DHT22;53422;49.296;6.900;2022-07-03T04:20:24;19.30;58.50
66568;DHT22;53422;49.296;6.900;2022-07-03T04:22:50;19.40;58.40
66568;DHT22;53422;49.296;6.900;2022-07-03T04:25:17;19.40;58.30
66568;DHT22;53422;49.296;6.900;2022-07-03T04:27:43;19.40;58.40
66568;DHT22;53422;49.296;6.900;2022-07-03T04:30:09;19.40;58.40
66568;DHT22;53422;49.296;6.900;2022-07-03T04:32:36;19.50;58.70
66568;DHT22;53422;49.296;6.900;2022-07-03T04:35:03;19.50;58.80
66568;DHT22;53422;49.296;6.900;2022-07-03T04:37:28;19.50;59.40
66568;DHT22;53422;49.296;6.900;2022-07-03T04:39:57;19.50;59.40
66568;DHT22;53422;49.296;6.900;2022-07-03T04:42:23;19.60;59.70
66568;DHT22;53422;49.296;6.900;2022-07-03T04:44:49;19.60;59.80
66568;DHT22;53422;49.296;6.900;2022-07-03T04:47:14;19.60;59.70
66568;DHT22;53422;49.296;6.900;2022-07-03T04:49:44;19.70;59.70
66568;DHT22;53422;49.296;6.900;2022-07-03T04:52:10;19.70;60.00
66568;DHT22;53422;49.296;6.900;2022-07-03T04:54:36;19.70;60.10
66568;DHT22;53422;49.296;6.900;2022-07-03T04:57:02;19.80;60.20
66568;DHT22;53422;49.296;6.900;2022-07-03T04:59:28;19.80;60.20
66568;DHT22;53422;49.296;6.900;2022-07-03T05:01:54;19.90;60.50
66568;DHT22;53422;49.296;6.900;2022-07-03T05:04:20;20.00;60.10
66568;DHT22;53422;49.296;6.900;2022-07-03T05:06:46;20.10;60.20
66568;DHT22;53422;49.296;6.900;2022-07-03T05:09:13;20.10;60.10
66568;DHT22;53422;49.296;6.900;2022-07-03T05:11:39;20.20;60.40
66568;DHT22;53422;49.296;6.900;2022-07-03T05:14:07;20.30;61.90
66568;DHT22;53422;49.296;6.900;2022-07-03T05:16:33;20.40;60.80
66568;DHT22;53422;49.296;6.900;2022-07-03T05:18:59;20.50;60.70
66568;DHT22;53422;49.296;6.900;2022-07-03T05:21:25;20.60;60.70
66568;DHT22;53422;49.296;6.900;2022-07-03T05:23:51;20.60;60.50
66568;DHT22;53422;49.296;6.900;2022-07-03T05:26:18;20.70;60.50
66568;DHT22;53422;49.296;6.900;2022-07-03T05:28:43;20.70;60.50
66568;DHT22;53422;49.296;6.900;2022-07-03T05:31:09;20.80;60.50
66568;DHT22;53422;49.296;6.900;2022-07-03T05:33:35;20.80;60.50
66568;DHT22;53422;49.296;6.900;2022-07-03T05:36:01;20.80;60.20
66568;DHT22;53422;49.296;6.900;2022-07-03T05:38:28;20.90;60.20
66568;DHT22;53422;49.296;6.900;2022-07-03T05:41:12;21.00;59.90
66568;DHT22;53422;49.296;6.900;2022-07-03T05:43:38;21.10;59.90
66568;DHT22;53422;49.296;6.900;2022-07-03T05:46:03;21.10;59.60
66568;DHT22;53422;49.296;6.900;2022-07-03T05:48:30;21.20;59.40
66568;DHT22;53422;49.296;6.900;2022-07-03T05:50:56;21.30;59.20
66568;DHT22;53422;49.296;6.900;2022-07-03T05:53:22;21.30;59.10
66568;DHT22;53422;49.296;6.900;2022-07-03T05:55:48;21.40;58.80
66568;DHT22;53422;49.296;6.900;2022-07-03T05:58:14;21.50;59.00
66568;DHT22;53422;49.296;6.900;2022-07-03T06:00:40;21.50;58.70
66568;DHT22;53422;49.296;6.900;2022-07-03T06:03:06;21.60;60.00
66568;DHT22;53422;49.296;6.900;2022-07-03T06:05:32;21.60;58.20
66568;DHT22;53422;49.296;6.900;2022-07-03T06:08:01;21.70;57.80
66568;DHT22;53422;49.296;6.900;2022-07-03T06:10:28;21.80;57.80
66568;DHT22;53422;49.296;6.900;2022-07-03T06:12:54;21.90;57.60
66568;DHT22;53422;49.296;6.900;2022-07-03T06:15:20;21.90;57.50
66568;DHT22;53422;49.296;6.900;2022-07-03T06:17:46;21.90;57.40
66568;DHT22;53422;49.296;6.900;2022-07-03T06:20:12;22.00;57.20
66568;DHT22;53422;49.296;6.900;2022-07-03T06:22:39;22.00;56.90
66568;DHT22;53422;49.296;6.900;2022-07-03T06:25:06;22.10;56.70
66568;DHT22;53422;49.296;6.900;2022-07-03T06:27:32;22.10;56.70
66568;DHT22;53422;49.296;6.900;2022-07-03T06:29:58;22.20;56.40
66568;DHT22;53422;49.296;6.900;2022-07-03T06:32:24;22.30;56.40
66568;DHT22;53422;49.296;6.900;2022-07-03T06:34:50;22.30;56.40
66568;DHT22;53422;49.296;6.900;2022-07-03T06:37:16;22.40;56.40
66568;DHT22;53422;49.296;6.900;2022-07-03T06:39:47;22.40;55.80
66568;DHT22;53422;49.296;6.900;2022-07-03T06:42:22;22.50;55.80
66568;DHT22;53422;49.296;6.900;2022-07-03T06:44:54;22.60;55.60
66568;DHT22;53422;49.296;6.900;2022-07-03T06:47:20;22.70;55.10
66568;DHT22;53422;49.296;6.900;2022-07-03T06:49:46;22.80;54.90
66568;DHT22;53422;49.296;6.900;2022-07-03T06:52:11;22.80;54.70
66568;DHT22;53422;49.296;6.900;2022-07-03T06:54:37;22.90;54.50
66568;DHT22;53422;49.296;6.900;2022-07-03T06:57:10;23.00;54.40
66568;DHT22;53422;49.296;6.900;2022-07-03T06:59:35;23.10;54.10
66568;DHT22;53422;49.296;6.900;2022-07-03T07:02:01;23.10;53.70
66568;DHT22;53422;49.296;6.900;2022-07-03T07:04:27;23.20;53.80
66568;DHT22;53422;49.296;6.900;2022-07-03T07:06:53;23.30;53.60
66568;DHT22;53422;49.296;6.900;2022-07-03T07:09:19;23.40;53.60
66568;DHT22;53422;49.296;6.900;2022-07-03T07:11:44;23.60;53.40
66568;DHT22;53422;49.296;6.900;2022-07-03T07:14:10;23.70;52.70
66568;DHT22;53422;49.296;6.900;2022-07-03T07:16:36;23.90;52.30
66568;DHT22;53422;49.296;6.900;2022-07-03T07:19:01;24.00;52.00
66568;DHT22;53422;49.296;6.900;2022-07-03T07:21:27;24.10;51.60
66568;DHT22;53422;49.296;6.900;2022-07-03T07:23:53;24.10;51.90
66568;DHT22;53422;49.296;6.900;2022-07-03T07:26:18;24.20;51.60
66568;DHT22;53422;49.296;6.900;2022-07-03T07:28:46;24.40;51.20
66568;DHT22;53422;49.296;6.900;2022-07-03T07:31:12;24.50;50.90
66568;DHT22;53422;49.296;6.900;2022-07-03T07:33:38;24.60;51.00
66568;DHT22;53422;49.296;6.900;2022-07-03T07:36:04;24.70;50.70
66568;DHT22;53422;49.296;6.900;2022-07-03T07:38:30;24.90;50.10
66568;DHT22;53422;49.296;6.900;2022-07-03T07:40:55;25.00;50.10
66568;DHT22;53422;49.296;6.900;2022-07-03T07:43:21;25.10;49.70
66568;DHT22;53422;49.296;6.900;2022-07-03T07:45:47;25.20;49.50
66568;DHT22;53422;49.296;6.900;2022-07-03T07:48:13;25.60;48.60
66568;DHT22;53422;49.296;6.900;2022-07-03T07:50:39;25.80;47.60
66568;DHT22;53422;49.296;6.900;2022-07-03T07:53:05;26.00;46.90
66568;DHT22;53422;49.296;6.900;2022-07-03T07:55:31;26.10;46.60
66568;DHT22;53422;49.296;6.900;2022-07-03T07:57:57;26.20;46.50
66568;DHT22;53422;49.296;6.900;2022-07-03T08:00:22;26.40;44.70
66568;DHT22;53422;49.296;6.900;2022-07-03T08:02:48;26.10;45.60
66568;DHT22;53422;49.296;6.900;2022-07-03T08:05:33;25.90;45.50
66568;DHT22;53422;49.296;6.900;2022-07-03T08:08:13;26.00;46.60
66568;DHT22;53422;49.296;6.900;2022-07-03T08:13:05;26.50;44.80
66568;DHT22;53422;49.296;6.900;2022-07-03T08:15:31;26.40;45.30
66568;DHT22;53422;49.296;6.900;2022-07-03T08:17:57;26.70;45.80
66568;DHT22;53422;49.296;6.900;2022-07-03T08:20:23;26.90;44.40
66568;DHT22;53422;49.296;6.900;2022-07-03T08:22:49;26.80;44.20
66568;DHT22;53422;49.296;6.900;2022-07-03T08:25:18;27.00;44.60
66568;DHT22;53422;49.296;6.900;2022-07-03T08:27:44;27.00;42.30
66568;DHT22;53422;49.296;6.900;2022-07-03T08:30:13;27.10;45.70
66568;DHT22;53422;49.296;6.900;2022-07-03T08:32:47;27.20;44.60
66568;DHT22;53422;49.296;6.900;2022-07-03T08:35:14;27.40;44.70
66568;DHT22;53422;49.296;6.900;2022-07-03T08:37:40;27.50;43.20
66568;DHT22;53422;49.296;6.900;2022-07-03T08:40:08;27.80;42.70
66568;DHT22;53422;49.296;6.900;2022-07-03T08:42:37;27.80;41.90
66568;DHT22;53422;49.296;6.900;2022-07-03T08:45:06;27.90;41.80
66568;DHT22;53422;49.296;6.900;2022-07-03T08:47:32;28.10;41.40
66568;DHT22;53422;49.296;6.900;2022-07-03T08:50:00;28.00;40.40
66568;DHT22;53422;49.296;6.900;2022-07-03T08:52:28;28.00;38.70
66568;DHT22;53422;49.296;6.900;2022-07-03T08:54:54;27.90;41.80
66568;DHT22;53422;49.296;6.900;2022-07-03T08:57:20;28.10;39.70
66568;DHT22;53422;49.296;6.900;2022-07-03T08:59:51;28.20;39.80
66568;DHT22;53422;49.296;6.900;2022-07-03T09:02:18;28.00;39.50
66568;DHT22;53422;49.296;6.900;2022-07-03T09:04:45;28.30;39.20
66568;DHT22;53422;49.296;6.900;2022-07-03T09:07:11;28.60;38.70
66568;DHT22;53422;49.296;6.900;2022-07-03T09:09:39;28.70;35.50
66568;DHT22;53422;49.296;6.900;2022-07-03T09:12:05;28.40;35.40
66568;DHT22;53422;49.296;6.900;2022-07-03T09:14:32;28.20;35.40
66568;DHT22;53422;49.296;6.900;2022-07-03T09:16:58;27.90;36.10
66568;DHT22;53422;49.296;6.900;2022-07-03T09:22:26;28.30;35.40
66568;DHT22;53422;49.296;6.900;2022-07-03T09:27:32;28.40;36.30
66568;DHT22;53422;49.296;6.900;2022-07-03T09:30:09;28.50;35.80
66568;DHT22;53422;49.296;6.900;2022-07-03T09:35:25;28.50;37.60
66568;DHT22;53422;49.296;6.900;2022-07-03T09:37:57;28.80;38.00
66568;DHT22;53422;49.296;6.900;2022-07-03T09:40:28;29.00;37.20
66568;DHT22;53422;49.296;6.900;2022-07-03T09:43:00;29.50;36.20
66568;DHT22;53422;49.296;6.900;2022-07-03T09:45:27;29.60;35.80
66568;DHT22;53422;49.296;6.900;2022-07-03T09:47:53;29.50;37.00
66568;DHT22;53422;49.296;6.900;2022-07-03T09:50:19;29.70;36.80
66568;DHT22;53422;49.296;6.900;2022-07-03T09:52:48;29.80;37.20
66568;DHT22;53422;49.296;6.900;2022-07-03T09:55:18;29.80;37.60
66568;DHT22;53422;49.296;6.900;2022-07-03T09:58:04;29.80;37.40
66568;DHT22;53422;49.296;6.900;2022-07-03T10:00:32;29.40;37.10
66568;DHT22;53422;49.296;6.900;2022-07-03T10:03:03;29.40;37.20
66568;DHT22;53422;49.296;6.900;2022-07-03T10:05:30;29.60;36.90
66568;DHT22;53422;49.296;6.900;2022-07-03T10:10:29;30.00;36.40
66568;DHT22;53422;49.296;6.900;2022-07-03T10:12:56;29.90;34.70
66568;DHT22;53422;49.296;6.900;2022-07-03T10:15:27;29.30;34.70
66568;DHT22;53422;49.296;6.900;2022-07-03T10:17:55;28.70;35.10
66568;DHT22;53422;49.296;6.900;2022-07-03T10:20:34;29.00;35.90
66568;DHT22;53422;49.296;6.900;2022-07-03T10:23:02;29.40;34.80
66568;DHT22;53422;49.296;6.900;2022-07-03T10:25:27;29.50;34.70
66568;DHT22;53422;49.296;6.900;2022-07-03T10:27:54;29.60;34.40
66568;DHT22;53422;49.296;6.900;2022-07-03T10:30:22;29.90;34.30
66568;DHT22;53422;49.296;6.900;2022-07-03T10:32:50;29.80;33.70
66568;DHT22;53422;49.296;6.900;2022-07-03T10:35:21;29.80;33.90
66568;DHT22;53422;49.296;6.900;2022-07-03T10:37:58;30.50;33.80
66568;DHT22;53422;49.296;6.900;2022-07-03T10:41:20;30.80;33.50
66568;DHT22;53422;49.296;6.900;2022-07-03T10:43:48;30.80;33.70
66568;DHT22;53422;49.296;6.900;2022-07-03T10:46:32;31.10;33.60
66568;DHT22;53422;49.296;6.900;2022-07-03T10:51:32;30.50;32.50
66568;DHT22;53422;49.296;6.900;2022-07-03T11:23:17;30.80;33.50
66568;DHT22;53422;49.296;6.900;2022-07-03T11:25:50;31.20;32.40
66568;DHT22;53422;49.296;6.900;2022-07-03T11:33:45;31.00;30.90
66568;DHT22;53422;49.296;6.900;2022-07-03T11:36:29;30.80;31.90
66568;DHT22;53422;49.296;6.900;2022-07-03T11:41:27;31.50;32.40
66568;DHT22;53422;49.296;6.900;2022-07-03T11:44:02;31.60;31.70
66568;DHT22;53422;49.296;6.900;2022-07-03T11:46:38;30.60;31.00
66568;DHT22;53422;49.296;6.900;2022-07-03T11:51:31;29.80;32.70
66568;DHT22;53422;49.296;6.900;2022-07-03T11:53:57;30.30;32.90
66568;DHT22;53422;49.296;6.900;2022-07-03T11:56:23;30.90;32.50
66568;DHT22;53422;49.296;6.900;2022-07-03T11:58:52;30.50;32.00
66568;DHT22;53422;49.296;6.900;2022-07-03T12:09:12;31.70;31.40
66568;DHT22;53422;49.296;6.900;2022-07-03T12:11:38;32.10;31.10
66568;DHT22;53422;49.296;6.900;2022-07-03T12:14:04;32.20;31.30
66568;DHT22;53422;49.296;6.900;2022-07-03T12:16:34;31.40;30.00
66568;DHT22;53422;49.296;6.900;2022-07-03T12:19:05;31.10;29.80
66568;DHT22;53422;49.296;6.900;2022-07-03T12:21:39;31.00;30.60
66568;DHT22;53422;49.296;6.900;2022-07-03T12:24:12;30.80;30.70
66568;DHT22;53422;49.296;6.900;2022-07-03T12:26:39;30.90;30.20
66568;DHT22;53422;49.296;6.900;2022-07-03T12:29:13;31.00;30.80
66568;DHT22;53422;49.296;6.900;2022-07-03T12:31:40;31.60;30.60
66568;DHT22;53422;49.296;6.900;2022-07-03T12:34:07;32.10;30.30
66568;DHT22;53422;49.296;6.900;2022-07-03T12:36:33;32.10;31.40
66568;DHT22;53422;49.296;6.900;2022-07-03T12:38:59;32.10;30.00
66568;DHT22;53422;49.296;6.900;2022-07-03T12:41:26;31.70;30.00
66568;DHT22;53422;49.296;6.900;2022-07-03T12:43:53;31.60;29.70
66568;DHT22;53422;49.296;6.900;2022-07-03T12:48:55;31.80;28.70
66568;DHT22;53422;49.296;6.900;2022-07-03T12:54:14;32.20;29.30
66568;DHT22;53422;49.296;6.900;2022-07-03T12:56:43;32.40;29.10
66568;DHT22;53422;49.296;6.900;2022-07-03T12:59:26;31.70;30.00
66568;DHT22;53422;49.296;6.900;2022-07-03T13:02:03;31.30;28.60
66568;DHT22;53422;49.296;6.900;2022-07-03T13:04:33;31.30;29.00
66568;DHT22;53422;49.296;6.900;2022-07-03T13:07:07;31.00;29.50
66568;DHT22;53422;49.296;6.900;2022-07-03T13:09:36;31.40;29.80
66568;DHT22;53422;49.296;6.900;2022-07-03T13:12:04;31.40;29.20
66568;DHT22;53422;49.296;6.900;2022-07-03T13:14:30;31.70;29.50
66568;DHT22;53422;49.296;6.900;2022-07-03T13:16:58;32.10;29.40
66568;DHT22;53422;49.296;6.900;2022-07-03T13:19:27;31.70;29.30
66568;DHT22;53422;49.296;6.900;2022-07-03T13:21:57;31.70;30.00
66568;DHT22;53422;49.296;6.900;2022-07-03T13:24:23;31.30;29.00
66568;DHT22;53422;49.296;6.900;2022-07-03T13:26:51;31.00;29.40
66568;DHT22;53422;49.296;6.900;2022-07-03T13:29:17;30.60;29.40
66568;DHT22;53422;49.296;6.900;2022-07-03T13:31:43;30.40;29.40
66568;DHT22;53422;49.296;6.900;2022-07-03T13:34:09;30.40;29.70
66568;DHT22;53422;49.296;6.900;2022-07-03T13:36:35;30.30;29.60
66568;DHT22;53422;49.296;6.900;2022-07-03T13:39:01;30.50;30.50
66568;DHT22;53422;49.296;6.900;2022-07-03T13:41:27;31.00;30.10
66568;DHT22;53422;49.296;6.900;2022-07-03T13:43:54;31.00;30.00
66568;DHT22;53422;49.296;6.900;2022-07-03T13:46:21;30.90;30.20
66568;DHT22;53422;49.296;6.900;2022-07-03T13:48:55;31.40;30.00
66568;DHT22;53422;49.296;6.900;2022-07-03T13:51:23;31.50;29.10
66568;DHT22;53422;49.296;6.900;2022-07-03T13:53:49;31.10;30.00
66568;DHT22;53422;49.296;6.900;2022-07-03T13:56:17;31.60;30.70
66568;DHT22;53422;49.296;6.900;2022-07-03T13:58:46;31.80;29.60
66568;DHT22;53422;49.296;6.900;2022-07-03T14:01:13;31.40;29.20
66568;DHT22;53422;49.296;6.900;2022-07-03T14:03:39;30.90;29.10
66568;DHT22;53422;49.296;6.900;2022-07-03T14:06:05;31.00;30.10
66568;DHT22;53422;49.296;6.900;2022-07-03T14:08:31;31.30;29.60
66568;DHT22;53422;49.296;6.900;2022-07-03T14:10:59;31.90;29.50
66568;DHT22;53422;49.296;6.900;2022-07-03T14:13:25;31.90;29.60
66568;DHT22;53422;49.296;6.900;2022-07-03T14:15:51;31.70;29.10
66568;DHT22;53422;49.296;6.900;2022-07-03T14:18:16;31.70;29.90
66568;DHT22;53422;49.296;6.900;2022-07-03T14:20:45;32.00;29.40
66568;DHT22;53422;49.296;6.900;2022-07-03T14:23:11;32.10;29.80
66568;DHT22;53422;49.296;6.900;2022-07-03T14:25:37;31.80;29.20
66568;DHT22;53422;49.296;6.900;2022-07-03T14:28:03;31.50;29.60
66568;DHT22;53422;49.296;6.900;2022-07-03T14:30:47;31.10;29.50
66568;DHT22;53422;49.296;6.900;2022-07-03T14:33:31;30.80;30.00
66568;DHT22;53422;49.296;6.900;2022-07-03T14:35:57;30.80;30.70
66568;DHT22;53422;49.296;6.900;2022-07-03T14:38:23;31.00;30.40
66568;DHT22;53422;49.296;6.900;2022-07-03T14:40:49;30.80;30.30
66568;DHT22;53422;49.296;6.900;2022-07-03T14:43:14;31.30;30.10
66568;DHT22;53422;49.296;6.900;2022-07-03T14:45:40;31.50;30.20
66568;DHT22;53422;49.296;6.900;2022-07-03T14:48:06;31.70;30.50
66568;DHT22;53422;49.296;6.900;2022-07-03T14:50:32;31.80;30.30
66568;DHT22;53422;49.296;6.900;2022-07-03T14:52:58;31.80;30.50
66568;DHT22;53422;49.296;6.900;2022-07-03T14:55:29;31.70;29.90
66568;DHT22;53422;49.296;6.900;2022-07-03T14:58:07;31.70;30.50
66568;DHT22;53422;49.296;6.900;2022-07-03T15:00:36;31.70;29.90
66568;DHT22;53422;49.296;6.900;2022-07-03T15:03:28;31.60;30.30
66568;DHT22;53422;49.296;6.900;2022-07-03T15:05:56;31.60;31.70
66568;DHT22;53422;49.296;6.900;2022-07-03T15:10:55;31.60;30.40
66568;DHT22;53422;49.296;6.900;2022-07-03T15:13:23;31.50;31.10
66568;DHT22;53422;49.296;6.900;2022-07-03T15:15:49;31.50;30.40
66568;DHT22;53422;49.296;6.900;2022-07-03T15:18:17;31.60;30.70
66568;DHT22;53422;49.296;6.900;2022-07-03T15:20:44;31.60;30.80
66568;DHT22;53422;49.296;6.900;2022-07-03T15:23:10;31.60;31.50
66568;DHT22;53422;49.296;6.900;2022-07-03T15:25:38;31.50;30.90
66568;DHT22;53422;49.296;6.900;2022-07-03T15:28:11;31.50;31.20
66568;DHT22;53422;49.296;6.900;2022-07-03T15:30:38;31.50;31.20
66568;DHT22;53422;49.296;6.900;2022-07-03T15:33:10;31.40;31.20
66568;DHT22;53422;49.296;6.900;2022-07-03T15:35:35;31.30;31.40
66568;DHT22;53422;49.296;6.900;2022-07-03T15:38:11;31.20;32.00
66568;DHT22;53422;49.296;6.900;2022-07-03T15:40:45;31.20;31.40
66568;DHT22;53422;49.296;6.900;2022-07-03T15:46:27;31.00;31.90
66568;DHT22;53422;49.296;6.900;2022-07-03T15:49:38;30.90;31.60
66568;DHT22;53422;49.296;6.900;2022-07-03T15:55:06;30.70;32.30
66568;DHT22;53422;49.296;6.900;2022-07-03T15:57:49;30.60;32.00
66568;DHT22;53422;49.296;6.900;2022-07-03T16:00:21;30.60;32.40
66568;DHT22;53422;49.296;6.900;2022-07-03T16:05:33;30.50;32.60
66568;DHT22;53422;49.296;6.900;2022-07-03T16:08:06;30.50;32.80
66568;DHT22;53422;49.296;6.900;2022-07-03T16:10:34;30.40;34.20
66568;DHT22;53422;49.296;6.900;2022-07-03T16:13:00;30.30;32.90
66568;DHT22;53422;49.296;6.900;2022-07-03T16:15:30;30.20;32.90
66568;DHT22;53422;49.296;6.900;2022-07-03T16:17:56;30.20;33.60
66568;DHT22;53422;49.296;6.900;2022-07-03T16:20:27;30.20;34.00
66568;DHT22;53422;49.296;6.900;2022-07-03T16:23:03;30.10;33.80
66568;DHT22;53422;49.296;6.900;2022-07-03T16:25:31;30.10;33.50
66568;DHT22;53422;49.296;6.900;2022-07-03T16:28:00;29.90;33.20
66568;DHT22;53422;49.296;6.900;2022-07-03T16:30:26;29.90;33.50
66568;DHT22;53422;49.296;6.900;2022-07-03T16:32:52;29.80;33.40
66568;DHT22;53422;49.296;6.900;2022-07-03T16:36:39;29.80;33.70
66568;DHT22;53422;49.296;6.900;2022-07-03T16:38:42;29.70;33.30
66568;DHT22;53422;49.296;6.900;2022-07-03T16:41:11;29.60;33.70
66568;DHT22;53422;49.296;6.900;2022-07-03T16:43:43;29.60;34.00
66568;DHT22;53422;49.296;6.900;2022-07-03T16:46:11;29.50;33.90
66568;DHT22;53422;49.296;6.900;2022-07-03T16:48:47;29.40;33.70
66568;DHT22;53422;49.296;6.900;2022-07-03T16:51:14;29.40;34.40
66568;DHT22;53422;49.296;6.900;2022-07-03T16:53:43;29.30;34.10
66568;DHT22;53422;49.296;6.900;2022-07-03T16:56:11;29.30;34.20
66568;DHT22;53422;49.296;6.900;2022-07-03T16:58:38;29.20;34.40
66568;DHT22;53422;49.296;6.900;2022-07-03T17:01:07;29.10;34.50
66568;DHT22;53422;49.296;6.900;2022-07-03T17:03:33;29.10;35.10
66568;DHT22;53422;49.296;6.900;2022-07-03T17:06:00;29.00;35.00
66568;DHT22;53422;49.296;6.900;2022-07-03T17:08:27;29.00;34.80
66568;DHT22;53422;49.296;6.900;2022-07-03T17:10:53;28.90;34.70
66568;DHT22;53422;49.296;6.900;2022-07-03T17:13:20;28.80;34.80
66568;DHT22;53422;49.296;6.900;2022-07-03T17:15:46;28.80;34.70
66568;DHT22;53422;49.296;6.900;2022-07-03T17:18:13;28.70;35.00
66568;DHT22;53422;49.296;6.900;2022-07-03T17:20:41;28.60;35.40
66568;DHT22;53422;49.296;6.900;2022-07-03T17:23:16;28.50;35.50
66568;DHT22;53422;49.296;6.900;2022-07-03T17:25:43;28.50;35.70
66568;DHT22;53422;49.296;6.900;2022-07-03T17:28:10;28.40;35.90
66568;DHT22;53422;49.296;6.900;2022-07-03T17:30:45;28.30;36.00
66568;DHT22;53422;49.296;6.900;2022-07-03T17:33:17;28.20;36.10
66568;DHT22;53422;49.296;6.900;2022-07-03T17:35:46;28.20;36.40
66568;DHT22;53422;49.296;6.900;2022-07-03T17:38:16;28.10;36.60
66568;DHT22;53422;49.296;6.900;2022-07-03T17:40:46;28.10;36.50
66568;DHT22;53422;49.296;6.900;2022-07-03T17:43:12;28.00;36.60
66568;DHT22;53422;49.296;6.900;2022-07-03T17:45:40;27.90;36.70